Time;durP1;ratioP1;P1;durP2;ratioP2;P2;SDS_P1;SDS_P2;PMS_P1;PMS_P2;Temp;Humidity;BMP_temperature;BMP_pressure;BME280_temperature;BME280_humidity;BME280_pressure;Samples;Min_cycle;Max_cycle;Signal;HPM_P1;HPM_P2
2023/06/19 00:01:37;;;;;;;8.85;6.97;;;;;;;;;;6102575;23;20150;-91
2023/06/19 00:04:03;;;;;;;9.93;6.65;;;;;;;;;;6103440;23;20014;-91
2023/06/19 00:06:29;;;;;;;8.60;6.95;;;;;;;;;;6104176;23;20025;-90
2023/06/19 00:08:55;;;;;;;8.15;6.72;;;;;;;;;;6128192;23;20009;-91
2023/06/19 00:11:22;;;;;;;7.85;6.88;;;;;;;;;;6105773;23;20014;-92
2023/06/19 00:13:48;;;;;;;12.35;7.05;;;;;;;;;;6128652;23;20054;-93
2023/06/19 00:16:15;;;;;;;13.27;6.70;;;;;;;;;;6104892;23;20359;-89
2023/06/19 00:18:42;;;;;;;11.93;7.10;;;;;;;;;;6104101;23;20013;-89
2023/06/19 00:21:13;;;;;;;10.70;6.75;;;;;;;;;;6130904;23;20345;-90
2023/06/19 00:23:39;;;;;;;10.45;6.57;;;;;;;;;;6129814;23;20013;-90
2023/06/19 00:26:14;;;;;;;11.45;6.93;;;;;;;;;;6124668;23;20010;-89
2023/06/19 00:28:45;;;;;;;14.53;6.90;;;;;;;;;;6131367;23;20544;-90
2023/06/19 00:31:13;;;;;;;9.63;6.93;;;;;;;;;;6105940;23;20536;-90
2023/06/19 00:33:39;;;;;;;9.20;7.57;;;;;;;;;;6129033;23;20014;-90
2023/06/19 00:36:26;;;;;;;9.15;6.78;;;;;;;;;;6105217;23;20502;-90
2023/06/19 00:38:56;;;;;;;10.55;7.07;;;;;;;;;;6106139;23;20014;-91
2023/06/19 00:41:22;;;;;;;9.82;7.40;;;;;;;;;;6104384;23;20009;-92
2023/06/19 00:43:53;;;;;;;8.40;6.70;;;;;;;;;;6126637;23;20061;-92
2023/06/19 00:46:29;;;;;;;9.70;6.57;;;;;;;;;;6125128;23;20009;-91
2023/06/19 00:48:59;;;;;;;9.32;6.93;;;;;;;;;;6105083;23;20009;-92
2023/06/19 00:51:25;;;;;;;9.70;7.47;;;;;;;;;;6100721;23;20021;-91
2023/06/19 00:53:51;;;;;;;9.25;6.22;;;;;;;;;;6103473;23;20460;-90
2023/06/19 00:56:48;;;;;;;9.23;6.70;;;;;;;;;;6127822;23;20025;-89
2023/06/19 00:59:27;;;;;;;8.93;6.60;;;;;;;;;;6108304;23;20355;-91
2023/06/19 01:02:09;;;;;;;;;;;;;;;;;;;;;
2023/06/19 01:04:37;;;;;;;8.98;6.97;;;;;;;;;;6129868;23;20092;-90
2023/06/19 01:07:14;;;;;;;7.72;6.45;;;;;;;;;;6102520;23;20035;-90
2023/06/19 01:10:10;;;;;;;;;;;;;;;;;;;;;
2023/06/19 01:12:54;;;;;;;13.98;6.95;;;;;;;;;;6153513;23;20097;-90
2023/06/19 01:15:33;;;;;;;9.10;6.45;;;;;;;;;;6128150;23;20012;-91
2023/06/19 01:18:25;;;;;;;11.48;6.45;;;;;;;;;;6129553;23;20012;-91
2023/06/19 01:21:12;;;;;;;18.40;6.90;;;;;;;;;;6102221;23;20582;-89
2023/06/19 01:23:40;;;;;;;9.63;5.93;;;;;;;;;;6101800;23;20009;-90
2023/06/19 01:26:10;;;;;;;10.73;6.25;;;;;;;;;;6100080;23;20044;-89
2023/06/19 01:28:45;;;;;;;10.75;6.95;;;;;;;;;;6128964;23;20021;-88
2023/06/19 01:31:33;;;;;;;10.30;6.80;;;;;;;;;;6156615;23;20020;-89
2023/06/19 01:34:01;;;;;;;10.55;7.03;;;;;;;;;;6154235;23;20013;-88
2023/06/19 01:36:36;;;;;;;8.63;6.28;;;;;;;;;;6182696;23;20317;-90
2023/06/19 01:39:13;;;;;;;9.05;6.85;;;;;;;;;;6157974;23;20007;-89
2023/06/19 01:42:19;;;;;;;10.30;6.95;;;;;;;;;;6160491;23;20024;-89
2023/06/19 01:44:50;;;;;;;8.85;6.65;;;;;;;;;;6153944;23;20016;-90
2023/06/19 01:47:20;;;;;;;14.40;6.50;;;;;;;;;;6134945;23;20027;-90
2023/06/19 01:50:13;;;;;;;11.85;6.53;;;;;;;;;;6158520;23;20445;-92
2023/06/19 01:52:59;;;;;;;9.23;7.00;;;;;;;;;;6115228;23;20064;-90
2023/06/19 01:56:24;;;;;;;12.05;6.97;;;;;;;;;;6100920;23;20049;-91
2023/06/19 01:58:55;;;;;;;10.20;7.07;;;;;;;;;;6031965;23;20176;-90
2023/06/19 02:08:10;;;;;;;10.02;6.28;;;;;;;;;;5953551;24;20008;-94
2023/06/19 02:10:58;;;;;;;9.82;7.05;;;;;;;;;;5955543;24;20050;-93
2023/06/19 02:13:46;;;;;;;11.80;7.65;;;;;;;;;;5958957;24;20016;-93
2023/06/19 02:16:12;;;;;;;9.88;6.55;;;;;;;;;;5938581;24;20004;-92
2023/06/19 02:18:39;;;;;;;12.93;7.15;;;;;;;;;;6019347;23;20027;-94
2023/06/19 02:21:21;;;;;;;10.13;7.15;;;;;;;;;;5986148;23;20105;-93
2023/06/19 02:23:51;;;;;;;7.53;6.38;;;;;;;;;;5988506;23;20504;-93
2023/06/19 02:26:22;;;;;;;8.48;6.82;;;;;;;;;;5988045;23;20473;-94
2023/06/19 02:28:58;;;;;;;9.50;6.70;;;;;;;;;;5986564;23;20118;-92
2023/06/19 02:31:29;;;;;;;9.63;7.28;;;;;;;;;;6022755;23;20010;-92
2023/06/19 02:34:11;;;;;;;12.95;7.30;;;;;;;;;;6132912;23;20013;-92
2023/06/19 02:36:47;;;;;;;10.50;7.15;;;;;;;;;;6133103;23;20013;-92
2023/06/19 02:39:14;;;;;;;12.77;7.38;;;;;;;;;;6130651;23;20019;-91
2023/06/19 02:41:46;;;;;;;11.57;7.60;;;;;;;;;;6132466;23;20006;-93
2023/06/19 02:44:17;;;;;;;9.88;6.95;;;;;;;;;;6132071;23;20104;-93
2023/06/19 02:46:56;;;;;;;9.93;6.95;;;;;;;;;;6131978;23;20072;-91
2023/06/19 02:49:23;;;;;;;9.05;6.65;;;;;;;;;;6156907;23;20013;-88
2023/06/19 02:51:49;;;;;;;16.20;7.82;;;;;;;;;;6155722;23;20033;-89
2023/06/19 02:54:34;;;;;;;;;;;;;;;;;;;;;
2023/06/19 02:57:01;;;;;;;12.45;7.43;;;;;;;;;;6160308;23;20089;-90
2023/06/19 02:59:29;;;;;;;11.15;7.35;;;;;;;;;;6134004;23;20372;-90
2023/06/19 03:02:08;;;;;;;10.27;6.70;;;;;;;;;;6157481;23;20040;-89
2023/06/19 03:04:38;;;;;;;14.50;6.85;;;;;;;;;;6132115;23;20013;-90
2023/06/19 03:07:05;;;;;;;16.38;7.10;;;;;;;;;;6156872;23;20095;-90
2023/06/19 03:09:38;;;;;;;12.15;7.05;;;;;;;;;;6131629;23;20390;-89
2023/06/19 03:12:08;;;;;;;13.35;7.30;;;;;;;;;;6132045;23;20436;-90
2023/06/19 03:14:43;;;;;;;17.23;8.13;;;;;;;;;;6155941;23;20019;-90
2023/06/19 03:19:59;;;;;;;10.48;7.07;;;;;;;;;;6101212;23;20344;-90
2023/06/19 03:22:29;;;;;;;14.25;7.70;;;;;;;;;;6132137;23;20100;-89
2023/06/19 03:25:06;;;;;;;10.80;7.18;;;;;;;;;;6154315;23;20062;-91
2023/06/19 03:27:43;;;;;;;;;;;;;;;;;;;;;
2023/06/19 03:30:18;;;;;;;12.05;7.20;;;;;;;;;;6129257;23;20017;-90
2023/06/19 03:32:45;;;;;;;10.68;7.38;;;;;;;;;;6124405;23;20526;-90
2023/06/19 03:35:11;;;;;;;9.23;6.75;;;;;;;;;;6124600;23;20006;-89
2023/06/19 03:37:38;;;;;;;12.43;7.95;;;;;;;;;;6100634;23;20021;-90
2023/06/19 03:40:08;;;;;;;14.02;7.97;;;;;;;;;;6150551;23;20062;-90
2023/06/19 03:42:35;;;;;;;11.25;7.60;;;;;;;;;;6122366;23;20033;-90
2023/06/19 03:45:10;;;;;;;12.80;7.07;;;;;;;;;;6098898;23;20119;-90
2023/06/19 03:47:39;;;;;;;11.85;7.47;;;;;;;;;;6100178;23;20013;-91
2023/06/19 03:50:09;;;;;;;9.98;7.18;;;;;;;;;;6099561;23;20013;-91
2023/06/19 03:52:37;;;;;;;12.32;7.32;;;;;;;;;;6100050;23;20450;-90
2023/06/19 03:55:07;;;;;;;15.23;7.85;;;;;;;;;;6099891;23;20013;-90
2023/06/19 03:57:37;;;;;;;12.27;7.20;;;;;;;;;;6100216;23;20010;-91
2023/06/19 04:00:12;;;;;;;14.10;7.88;;;;;;;;;;6100074;23;20014;-91
2023/06/19 04:02:39;;;;;;;;;;;;;;;;;;6123896;23;20005;-90
2023/06/19 04:05:06;;;;;;;15.40;7.78;;;;;;;;;;6123363;23;19901;-90
2023/06/19 04:07:32;;;;;;;10.63;7.07;;;;;;;;;;6126077;23;20093;-91
2023/06/19 04:10:08;;;;;;;12.25;7.25;;;;;;;;;;6126609;23;20010;-93
2023/06/19 04:12:35;;;;;;;11.60;7.22;;;;;;;;;;6124317;23;20085;-93
2023/06/19 04:15:03;;;;;;;16.45;7.10;;;;;;;;;;6101348;23;20100;-93
2023/06/19 04:17:29;;;;;;;9.30;6.50;;;;;;;;;;6099427;23;20020;-92
2023/06/19 04:20:12;;;;;;;8.02;5.93;;;;;;;;;;6101794;23;20033;-93
2023/06/19 04:22:39;;;;;;;8.82;6.63;;;;;;;;;;6124809;23;20005;-93
2023/06/19 04:25:07;;;;;;;9.73;6.53;;;;;;;;;;6125474;23;20037;-92
2023/06/19 04:27:34;;;;;;;9.57;6.22;;;;;;;;;;6116293;23;20028;-93
2023/06/19 04:30:02;;;;;;;12.90;6.80;;;;;;;;;;6155401;23;20013;-92
2023/06/19 04:32:29;;;;;;;11.73;6.47;;;;;;;;;;6129032;23;20049;-92
2023/06/19 04:34:59;;;;;;;11.07;6.75;;;;;;;;;;6132217;23;20005;-92
2023/06/19 04:37:26;;;;;;;15.23;6.78;;;;;;;;;;6130674;23;20016;-92
2023/06/19 04:39:53;;;;;;;12.50;6.75;;;;;;;;;;6132441;23;20013;-92
2023/06/19 04:42:20;;;;;;;11.55;6.72;;;;;;;;;;6133712;23;20036;-90
2023/06/19 04:44:47;;;;;;;11.90;5.93;;;;;;;;;;6132693;23;20013;-93
2023/06/19 04:47:27;;;;;;;8.23;5.47;;;;;;;;;;6154336;23;20019;-91
2023/06/19 04:49:56;;;;;;;9.02;6.05;;;;;;;;;;6181110;23;20028;-90
2023/06/19 04:52:33;;;;;;;7.10;4.55;;;;;;;;;;6134069;23;20017;-90
2023/06/19 04:55:09;;;;;;;7.10;4.47;;;;;;;;;;6159878;23;20013;-87
2023/06/19 04:58:04;;;;;;;10.88;4.90;;;;;;;;;;6138281;23;20077;-89
2023/06/19 05:00:38;;;;;;;8.95;5.10;;;;;;;;;;6045281;23;20055;-87
2023/06/19 05:03:21;;;;;;;6.82;4.60;;;;;;;;;;6158552;23;20379;-90
2023/06/19 05:05:54;;;;;;;7.43;4.88;;;;;;;;;;6160243;23;20516;-92
2023/06/19 05:08:29;;;;;;;10.10;5.00;;;;;;;;;;6162958;23;20009;-89
2023/06/19 05:11:08;;;;;;;;;;;;;;;;;;6148230;23;20063;-90
2023/06/19 05:14:03;;;;;;;7.40;4.72;;;;;;;;;;6170970;23;19928;-90
2023/06/19 05:16:50;;;;;;;13.50;3.85;;;;;;;;;;6094366;23;20347;-90
2023/06/19 05:19:34;;;;;;;6.70;4.40;;;;;;;;;;6134047;23;20009;-89
2023/06/19 05:22:21;;;;;;;7.15;4.82;;;;;;;;;;6155270;23;20346;-86
2023/06/19 05:24:48;;;;;;;7.88;4.70;;;;;;;;;;6158408;23;20028;-87
2023/06/19 05:27:14;;;;;;;13.18;4.13;;;;;;;;;;6156251;22;20029;-88
2023/06/19 05:29:41;;;;;;;9.52;5.57;;;;;;;;;;6128223;23;20042;-87
2023/06/19 05:32:08;;;;;;;5.32;4.20;;;;;;;;;;6127907;23;20017;-89
2023/06/19 05:34:34;;;;;;;7.72;4.32;;;;;;;;;;6152744;23;20448;-89
2023/06/19 05:37:03;;;;;;;9.10;5.00;;;;;;;;;;6126812;23;20016;-87
2023/06/19 05:39:29;;;;;;;6.80;4.80;;;;;;;;;;6150306;23;20009;-88
2023/06/19 05:41:56;;;;;;;8.77;5.10;;;;;;;;;;6126807;23;20020;-88
2023/06/19 05:44:32;;;;;;;6.55;4.43;;;;;;;;;;6127841;23;20478;-88
2023/06/19 05:47:09;;;;;;;5.90;4.43;;;;;;;;;;6129168;23;20066;-89
2023/06/19 05:49:36;;;;;;;6.32;4.30;;;;;;;;;;6129978;23;20347;-89
2023/06/19 05:52:05;;;;;;;5.97;4.68;;;;;;;;;;6127714;23;20017;-89
2023/06/19 05:54:41;;;;;;;6.05;3.13;;;;;;;;;;6126576;23;20269;-88
2023/06/19 05:57:11;;;;;;;;;;;;;;;;;;6154744;23;20009;-89
2023/06/19 05:59:57;;;;;;;12.25;5.15;;;;;;;;;;6152350;23;19901;-89
2023/06/19 06:02:47;;;;;;;13.90;5.55;;;;;;;;;;6151068;23;20009;-88
2023/06/19 06:05:14;;;;;;;9.57;4.47;;;;;;;;;;6153075;23;20389;-88
2023/06/19 06:07:43;;;;;;;9.25;5.55;;;;;;;;;;6157098;23;20035;-88
2023/06/19 06:10:11;;;;;;;9.02;4.78;;;;;;;;;;6127815;23;20021;-89
2023/06/19 06:12:40;;;;;;;7.32;5.07;;;;;;;;;;6129759;23;20013;-88
2023/06/19 06:18:05;;;;;;;14.50;6.57;;;;;;;;;;6056173;23;20038;-89
2023/06/19 06:20:39;;;;;;;13.20;6.30;;;;;;;;;;6152581;23;20055;-88
2023/06/19 06:23:15;;;;;;;10.57;6.65;;;;;;;;;;6131321;23;20063;-89
2023/06/19 06:25:49;;;;;;;12.15;7.55;;;;;;;;;;6133435;23;20017;-89
2023/06/19 06:28:29;;;;;;;9.90;5.72;;;;;;;;;;6130930;23;20029;-88
2023/06/19 06:30:56;;;;;;;13.50;7.10;;;;;;;;;;6152700;23;20341;-89
2023/06/19 06:33:23;;;;;;;13.98;7.60;;;;;;;;;;6128860;23;20020;-89
2023/06/19 06:35:53;;;;;;;13.13;6.65;;;;;;;;;;6128641;23;20043;-89
2023/06/19 06:38:21;;;;;;;12.57;7.22;;;;;;;;;;6130143;23;20491;-89
2023/06/19 06:40:51;;;;;;;8.57;5.72;;;;;;;;;;6127555;23;20201;-89
2023/06/19 06:43:21;;;;;;;10.15;6.38;;;;;;;;;;6179243;23;20521;-89
2023/06/19 06:46:08;;;;;;;13.80;6.15;;;;;;;;;;6125592;23;20009;-88
2023/06/19 06:48:34;;;;;;;12.75;6.32;;;;;;;;;;6157372;23;20394;-89
2023/06/19 06:51:01;;;;;;;11.20;6.22;;;;;;;;;;6127626;23;20021;-89
2023/06/19 06:53:28;;;;;;;10.45;5.75;;;;;;;;;;6152086;23;20008;-88
2023/06/19 06:55:54;;;;;;;8.30;5.22;;;;;;;;;;6152196;23;20005;-90
2023/06/19 06:58:21;;;;;;;7.32;4.85;;;;;;;;;;6127812;23;20029;-89
2023/06/19 07:00:47;;;;;;;6.47;4.97;;;;;;;;;;6177938;23;20004;-90
2023/06/19 07:03:14;;;;;;;8.77;5.18;;;;;;;;;;6127936;23;20009;-89
2023/06/19 07:05:40;;;;;;;7.13;4.70;;;;;;;;;;6128004;23;20013;-90
2023/06/19 07:08:09;;;;;;;8.57;5.05;;;;;;;;;;6126710;23;20009;-90
2023/06/19 07:10:35;;;;;;;8.52;5.80;;;;;;;;;;6128527;23;20472;-89
2023/06/19 07:13:07;;;;;;;7.75;5.15;;;;;;;;;;6126896;23;20009;-88
2023/06/19 07:15:45;;;;;;;8.55;5.47;;;;;;;;;;6152551;23;20067;-90
2023/06/19 07:18:13;;;;;;;8.48;6.00;;;;;;;;;;6131290;23;20013;-88
2023/06/19 07:20:49;;;;;;;;;;;;;;;;;;;;;
2023/06/19 07:23:16;;;;;;;9.07;5.50;;;;;;;;;;6157800;23;20053;-89
2023/06/19 07:25:42;;;;;;;12.20;8.07;;;;;;;;;;6129164;23;20435;-89
2023/06/19 07:28:08;;;;;;;11.98;6.53;;;;;;;;;;6131825;23;20423;-89
2023/06/19 07:30:34;;;;;;;13.15;6.35;;;;;;;;;;6131283;23;20008;-89
2023/06/19 07:33:00;;;;;;;11.38;7.07;;;;;;;;;;6154633;23;20083;-87
2023/06/19 07:35:26;;;;;;;12.40;8.02;;;;;;;;;;6153665;23;20185;-89
2023/06/19 07:37:52;;;;;;;14.25;8.18;;;;;;;;;;6129795;23;20017;-89
2023/06/19 07:40:18;;;;;;;12.48;8.93;;;;;;;;;;6154364;23;20009;-89
2023/06/19 07:42:44;;;;;;;15.10;8.98;;;;;;;;;;6130051;23;20436;-89
2023/06/19 07:45:11;;;;;;;19.35;9.48;;;;;;;;;;6127577;23;20017;-89
2023/06/19 07:47:50;;;;;;;20.17;10.38;;;;;;;;;;6154860;23;20013;-90
2023/06/19 07:50:16;;;;;;;22.08;11.20;;;;;;;;;;6156418;23;20036;-89
2023/06/19 07:52:42;;;;;;;17.05;11.38;;;;;;;;;;6130395;23;20020;-89
2023/06/19 07:55:12;;;;;;;19.33;11.23;;;;;;;;;;6153919;23;20052;-89
2023/06/19 07:57:45;;;;;;;24.50;12.10;;;;;;;;;;6157680;23;20009;-90
2023/06/19 08:00:14;;;;;;;19.88;11.70;;;;;;;;;;6153560;23;20009;-89
2023/06/19 08:02:41;;;;;;;18.02;8.98;;;;;;;;;;6152957;23;20349;-89
2023/06/19 08:05:08;;;;;;;22.60;12.25;;;;;;;;;;6180680;23;20005;-89
2023/06/19 08:07:44;;;;;;;24.08;11.20;;;;;;;;;;6129854;23;20020;-89
2023/06/19 08:10:10;;;;;;;21.73;10.80;;;;;;;;;;6130568;23;20102;-89
2023/06/19 08:12:36;;;;;;;24.98;11.13;;;;;;;;;;6130233;23;20024;-89
2023/06/19 08:15:03;;;;;;;24.63;10.80;;;;;;;;;;6154390;23;20016;-89
2023/06/19 08:17:29;;;;;;;20.33;10.52;;;;;;;;;;6178962;23;20024;-88
2023/06/19 08:19:55;;;;;;;19.48;10.82;;;;;;;;;;6156115;23;20032;-89
2023/06/19 08:22:28;;;;;;;16.50;9.20;;;;;;;;;;6132332;23;20071;-90
2023/06/19 08:25:00;;;;;;;16.75;8.52;;;;;;;;;;6131780;23;20021;-89
2023/06/19 08:27:27;;;;;;;13.18;7.10;;;;;;;;;;6155771;22;20027;-90
2023/06/19 08:30:06;;;;;;;14.68;6.68;;;;;;;;;;6130225;23;20051;-90
2023/06/19 08:32:34;;;;;;;12.02;7.30;;;;;;;;;;6132680;23;20388;-88
2023/06/19 08:35:07;;;;;;;21.88;7.93;;;;;;;;;;6130550;23;20017;-89
2023/06/19 08:37:34;;;;;;;14.02;6.82;;;;;;;;;;6130762;23;20036;-89
2023/06/19 08:40:06;;;;;;;12.15;6.93;;;;;;;;;;6156530;23;20013;-89
2023/06/19 08:42:43;;;;;;;12.75;6.93;;;;;;;;;;6131513;23;20011;-89
2023/06/19 08:45:11;;;;;;;11.60;5.22;;;;;;;;;;6127229;23;20040;-89
2023/06/19 08:47:37;;;;;;;7.45;5.03;;;;;;;;;;6131004;23;20009;-89
2023/06/19 08:50:04;;;;;;;10.88;6.40;;;;;;;;;;6154074;23;20079;-89
2023/06/19 08:52:33;;;;;;;10.63;6.25;;;;;;;;;;6152464;23;20414;-89
2023/06/19 08:54:59;;;;;;;10.10;6.03;;;;;;;;;;6130735;23;20013;-91
2023/06/19 08:57:35;;;;;;;9.75;4.35;;;;;;;;;;6153202;23;20083;-89
2023/06/19 09:00:02;;;;;;;8.07;3.83;;;;;;;;;;6153656;23;20287;-89
2023/06/19 09:02:38;;;;;;;12.00;5.10;;;;;;;;;;6179373;23;20008;-88
2023/06/19 09:05:36;;;;;;;9.13;5.03;;;;;;;;;;6128769;23;20020;-89
2023/06/19 09:08:03;;;;;;;10.02;4.43;;;;;;;;;;6153293;23;20103;-89
2023/06/19 09:10:32;;;;;;;12.60;5.50;;;;;;;;;;6155644;23;20071;-88
2023/06/19 09:13:08;;;;;;;10.00;4.78;;;;;;;;;;6131696;23;20391;-87
2023/06/19 09:15:39;;;;;;;11.95;4.55;;;;;;;;;;6156998;23;20033;-88
2023/06/19 09:18:07;;;;;;;9.70;5.45;;;;;;;;;;6157002;23;20005;-88
2023/06/19 09:20:37;;;;;;;5.88;3.45;;;;;;;;;;6132912;23;20063;-87
2023/06/19 09:23:09;;;;;;;6.38;4.05;;;;;;;;;;6158458;23;20012;-88
2023/06/19 09:25:52;;;;;;;19.15;4.57;;;;;;;;;;6157165;23;20116;-89
2023/06/19 09:28:23;;;;;;;11.95;3.75;;;;;;;;;;6159887;23;20024;-88
2023/06/19 09:31:16;;;;;;;7.03;3.05;;;;;;;;;;6160130;23;20498;-88
2023/06/19 09:33:43;;;;;;;5.32;3.95;;;;;;;;;;6144067;23;20013;-88
2023/06/19 09:36:13;;;;;;;8.43;3.35;;;;;;;;;;6134160;23;20515;-89
2023/06/19 09:38:40;;;;;;;7.93;4.07;;;;;;;;;;6158661;23;20001;-89
2023/06/19 09:41:07;;;;;;;6.57;3.75;;;;;;;;;;6134837;23;20005;-88
2023/06/19 09:43:42;;;;;;;7.60;3.80;;;;;;;;;;6159073;23;20009;-89
2023/06/19 09:46:09;;;;;;;6.65;3.60;;;;;;;;;;6157946;23;20036;-90
2023/06/19 09:48:35;;;;;;;6.43;4.47;;;;;;;;;;6133363;23;20041;-90
2023/06/19 09:51:09;;;;;;;7.95;4.53;;;;;;;;;;6159880;23;20060;-90
2023/06/19 09:53:37;;;;;;;7.32;4.35;;;;;;;;;;6156957;23;20012;-89
2023/06/19 09:56:10;;;;;;;6.47;4.28;;;;;;;;;;6158381;23;20016;-88
2023/06/19 09:58:38;;;;;;;8.52;4.82;;;;;;;;;;6155182;23;20009;-89
2023/06/19 10:01:06;;;;;;;9.18;5.35;;;;;;;;;;6154869;23;20025;-89
2023/06/19 10:03:40;;;;;;;10.82;6.18;;;;;;;;;;6130850;23;20123;-89
2023/06/19 10:06:09;;;;;;;10.55;5.22;;;;;;;;;;6181574;23;20440;-88
2023/06/19 10:08:42;;;;;;;12.45;5.65;;;;;;;;;;6130650;23;20435;-88
2023/06/19 10:11:09;;;;;;;14.05;6.75;;;;;;;;;;6126788;23;20063;-88
2023/06/19 10:13:38;;;;;;;11.43;6.18;;;;;;;;;;6128441;23;20020;-89
2023/06/19 10:16:05;;;;;;;8.90;6.28;;;;;;;;;;6150139;23;20108;-90
2023/06/19 10:18:48;;;;;;;12.10;6.80;;;;;;;;;;6152587;23;20451;-90
2023/06/19 10:21:38;;;;;;;17.60;6.47;;;;;;;;;;6129275;23;20088;-89
2023/06/19 10:24:04;;;;;;;10.82;6.07;;;;;;;;;;6150063;23;20033;-89
2023/06/19 10:26:37;;;;;;;10.65;6.35;;;;;;;;;;6127227;23;20368;-89
2023/06/19 10:29:14;;;;;;;14.85;7.45;;;;;;;;;;6128098;23;20021;-89
2023/06/19 10:31:40;;;;;;;13.60;6.47;;;;;;;;;;6127085;23;20388;-89
2023/06/19 10:34:06;;;;;;;14.80;7.28;;;;;;;;;;6152725;23;20091;-89
2023/06/19 10:36:36;;;;;;;13.73;7.70;;;;;;;;;;6129925;23;20032;-88
2023/06/19 10:39:25;;;;;;;12.00;7.15;;;;;;;;;;6128780;23;20443;-89
2023/06/19 10:41:52;;;;;;;13.65;8.00;;;;;;;;;;6153119;23;20494;-88
2023/06/19 10:44:18;;;;;;;13.40;7.97;;;;;;;;;;6151567;23;20013;-88
2023/06/19 10:46:45;;;;;;;11.77;8.32;;;;;;;;;;6125723;23;20010;-88
2023/06/19 10:49:13;;;;;;;14.43;8.25;;;;;;;;;;6129134;23;20009;-88
2023/06/19 10:51:43;;;;;;;15.93;8.45;;;;;;;;;;6129364;23;20021;-89
2023/06/19 10:54:10;;;;;;;15.55;8.77;;;;;;;;;;6131413;23;20020;-89
2023/06/19 10:56:37;;;;;;;18.10;8.35;;;;;;;;;;6153917;23;20008;-88
2023/06/19 10:59:14;;;;;;;15.02;7.97;;;;;;;;;;6154311;23;20005;-88
2023/06/19 11:01:46;;;;;;;12.50;8.40;;;;;;;;;;6152649;23;20063;-89
2023/06/19 11:04:12;;;;;;;19.17;8.02;;;;;;;;;;6181091;23;20001;-88
2023/06/19 11:06:40;;;;;;;16.02;7.80;;;;;;;;;;6153014;23;20019;-88
2023/06/19 11:09:10;;;;;;;14.93;8.52;;;;;;;;;;6153317;23;20008;-88
2023/06/19 11:11:40;;;;;;;12.38;7.53;;;;;;;;;;6128890;23;20036;-88
2023/06/19 11:14:12;;;;;;;13.70;7.15;;;;;;;;;;6152241;23;20092;-87
2023/06/19 11:16:41;;;;;;;19.63;8.50;;;;;;;;;;6129576;23;20017;-88
2023/06/19 11:19:14;;;;;;;12.75;7.53;;;;;;;;;;6151659;23;20378;-88
2023/06/19 11:21:48;;;;;;;12.15;7.63;;;;;;;;;;6152212;23;20059;-88
2023/06/19 11:24:15;;;;;;;14.15;7.80;;;;;;;;;;6129257;23;20351;-88
2023/06/19 11:26:49;;;;;;;10.70;6.85;;;;;;;;;;6128437;23;20012;-88
2023/06/19 11:29:16;;;;;;;12.30;7.80;;;;;;;;;;6154367;23;20376;-88
2023/06/19 11:31:43;;;;;;;12.43;7.57;;;;;;;;;;6151036;23;20020;-89
2023/06/19 11:34:10;;;;;;;14.10;7.25;;;;;;;;;;6129565;23;20433;-89
2023/06/19 11:36:40;;;;;;;12.70;6.55;;;;;;;;;;6127837;23;20013;-89
2023/06/19 11:39:13;;;;;;;13.15;8.23;;;;;;;;;;6151727;23;20012;-89
2023/06/19 11:41:40;;;;;;;16.63;8.73;;;;;;;;;;6153379;23;20064;-90
2023/06/19 11:44:08;;;;;;;13.60;7.63;;;;;;;;;;6153442;23;20013;-90
2023/06/19 11:46:35;;;;;;;14.23;7.72;;;;;;;;;;6151257;23;20391;-90
2023/06/19 11:49:08;;;;;;;13.35;7.47;;;;;;;;;;6154980;23;20016;-90
2023/06/19 11:51:38;;;;;;;12.07;6.88;;;;;;;;;;6155410;23;20020;-89
2023/06/19 11:54:08;;;;;;;9.98;6.53;;;;;;;;;;6129272;23;20044;-90
2023/06/19 11:56:35;;;;;;;14.00;8.35;;;;;;;;;;6154065;23;20391;-88
2023/06/19 11:59:08;;;;;;;14.18;7.95;;;;;;;;;;6129939;23;20013;-89
2023/06/19 12:01:38;;;;;;;17.70;8.38;;;;;;;;;;6153786;23;20005;-89
2023/06/19 12:04:05;;;;;;;17.08;8.80;;;;;;;;;;6130047;23;20024;-89
2023/06/19 12:06:35;;;;;;;13.25;7.82;;;;;;;;;;6154137;23;20347;-88
2023/06/19 12:09:04;;;;;;;13.38;7.70;;;;;;;;;;6154471;23;20347;-88
2023/06/19 12:11:37;;;;;;;15.50;7.85;;;;;;;;;;6153317;23;20020;-90
2023/06/19 12:14:06;;;;;;;11.50;8.30;;;;;;;;;;6130672;23;20088;-89
2023/06/19 12:16:33;;;;;;;20.15;9.60;;;;;;;;;;6130546;23;20013;-89
2023/06/19 12:19:05;;;;;;;24.00;9.45;;;;;;;;;;6129730;23;20067;-90
2023/06/19 12:21:32;;;;;;;13.50;9.30;;;;;;;;;;6130675;23;20431;-89
2023/06/19 12:23:58;;;;;;;15.05;8.70;;;;;;;;;;6129764;23;20451;-89
2023/06/19 12:26:25;;;;;;;21.30;7.88;;;;;;;;;;6130509;23;20013;-90
2023/06/19 12:28:52;;;;;;;13.75;9.13;;;;;;;;;;6130263;23;20040;-90
2023/06/19 12:31:19;;;;;;;16.63;8.82;;;;;;;;;;6129179;23;20094;-89
2023/06/19 12:33:48;;;;;;;16.23;8.95;;;;;;;;;;6153943;23;20009;-89
2023/06/19 12:36:18;;;;;;;14.55;8.32;;;;;;;;;;6130793;23;20009;-89
2023/06/19 12:38:48;;;;;;;12.57;6.82;;;;;;;;;;6155346;23;20008;-89
2023/06/19 12:41:15;;;;;;;13.75;8.15;;;;;;;;;;6154906;23;20064;-88
2023/06/19 12:43:51;;;;;;;14.70;7.85;;;;;;;;;;6130063;23;20020;-89
2023/06/19 12:46:18;;;;;;;13.43;8.52;;;;;;;;;;6130156;23;20089;-88
2023/06/19 12:48:54;;;;;;;;;;;;;;;;;;;;;
2023/06/19 12:51:27;;;;;;;17.65;9.82;;;;;;;;;;6157142;23;20519;-89
2023/06/19 12:53:53;;;;;;;13.50;8.02;;;;;;;;;;6152670;23;20299;-90
2023/06/19 12:56:20;;;;;;;12.48;7.60;;;;;;;;;;6152888;23;20024;-90
2023/06/19 13:01:47;;;;;;;17.25;8.40;;;;;;;;;;6103052;23;20009;-90
2023/06/19 13:04:14;;;;;;;15.90;7.43;;;;;;;;;;6131226;23;20033;-89
2023/06/19 13:06:41;;;;;;;14.40;8.70;;;;;;;;;;6153263;23;20067;-90
2023/06/19 13:09:10;;;;;;;14.05;7.95;;;;;;;;;;6153412;23;20088;-90
2023/06/19 13:11:36;;;;;;;15.15;7.90;;;;;;;;;;6152602;23;20008;-90
2023/06/19 13:14:03;;;;;;;16.40;8.05;;;;;;;;;;6128169;23;20017;-89
2023/06/19 13:16:37;;;;;;;16.08;7.78;;;;;;;;;;6153159;23;20019;-90
2023/06/19 13:19:03;;;;;;;17.15;8.75;;;;;;;;;;6129957;23;20036;-90
2023/06/19 13:21:30;;;;;;;12.73;7.35;;;;;;;;;;6129184;23;20013;-90
2023/06/19 13:23:59;;;;;;;12.70;7.32;;;;;;;;;;6152377;23;20503;-90
2023/06/19 13:26:25;;;;;;;16.15;8.25;;;;;;;;;;6129278;23;20072;-90
2023/06/19 13:29:02;;;;;;;10.30;6.68;;;;;;;;;;6131779;23;20016;-89
2023/06/19 13:31:28;;;;;;;11.68;6.93;;;;;;;;;;6130196;23;20017;-89
2023/06/19 13:33:55;;;;;;;15.50;7.00;;;;;;;;;;6154220;23;20015;-89
2023/06/19 13:36:23;;;;;;;14.43;7.03;;;;;;;;;;6131484;23;20372;-89
2023/06/19 13:38:51;;;;;;;11.65;6.80;;;;;;;;;;6128961;23;20023;-90
2023/06/19 13:41:23;;;;;;;15.98;7.50;;;;;;;;;;6153833;23;20011;-88
2023/06/19 13:43:50;;;;;;;12.25;6.43;;;;;;;;;;6131688;23;20017;-89
2023/06/19 13:46:16;;;;;;;12.93;6.95;;;;;;;;;;6125704;23;20016;-89
2023/06/19 13:48:43;;;;;;;13.35;7.47;;;;;;;;;;6153926;23;20040;-89
2023/06/19 13:51:09;;;;;;;12.43;5.78;;;;;;;;;;6128868;23;20099;-90
2023/06/19 13:53:35;;;;;;;10.77;5.25;;;;;;;;;;6126131;23;20013;-89
2023/06/19 13:56:01;;;;;;;13.05;6.88;;;;;;;;;;6128711;23;20009;-89
2023/06/19 13:58:27;;;;;;;13.32;6.22;;;;;;;;;;6154083;23;20009;-89
2023/06/19 14:00:59;;;;;;;9.38;5.78;;;;;;;;;;6127543;23;20064;-87
2023/06/19 14:03:26;;;;;;;10.00;5.93;;;;;;;;;;6127917;23;20009;-89
2023/06/19 14:06:12;;;;;;;10.18;7.13;;;;;;;;;;6129433;23;20016;-88
2023/06/19 14:08:39;;;;;;;9.40;6.50;;;;;;;;;;6181044;23;20084;-89
2023/06/19 14:11:05;;;;;;;9.98;6.45;;;;;;;;;;6155136;23;20013;-90
2023/06/19 14:13:34;;;;;;;12.00;7.03;;;;;;;;;;6155496;23;20257;-89
2023/06/19 14:16:03;;;;;;;9.80;5.88;;;;;;;;;;6130600;23;20009;-89
2023/06/19 14:18:29;;;;;;;10.38;6.15;;;;;;;;;;6130196;23;20021;-90
2023/06/19 14:21:11;;;;;;;7.72;5.72;;;;;;;;;;6155875;23;20060;-90
2023/06/19 14:23:42;;;;;;;14.80;6.43;;;;;;;;;;6154958;23;20068;-90
2023/06/19 14:26:25;;;;;;;8.88;6.28;;;;;;;;;;6157994;23;20004;-89
2023/06/19 14:28:56;;;;;;;8.02;5.85;;;;;;;;;;6141606;23;20017;-89
2023/06/19 14:31:35;;;;;;;9.57;6.22;;;;;;;;;;6157309;23;20271;-90
2023/06/19 14:34:10;;;;;;;10.13;5.38;;;;;;;;;;6159549;23;20024;-89
2023/06/19 14:36:39;;;;;;;9.68;5.95;;;;;;;;;;6160286;23;20344;-90
2023/06/19 14:39:09;;;;;;;9.63;6.00;;;;;;;;;;6159653;23;20013;-89
2023/06/19 14:41:42;;;;;;;11.25;5.57;;;;;;;;;;6185876;23;20357;-89
2023/06/19 14:44:08;;;;;;;7.85;5.30;;;;;;;;;;6159341;23;20013;-89
2023/06/19 14:46:40;;;;;;;9.20;5.30;;;;;;;;;;6133918;23;20013;-88
2023/06/19 14:49:10;;;;;;;13.85;7.07;;;;;;;;;;6134702;23;20040;-88
2023/06/19 14:51:47;;;;;;;13.10;6.00;;;;;;;;;;6156964;23;20554;-89
2023/06/19 14:54:15;;;;;;;9.32;6.63;;;;;;;;;;6133506;23;20044;-88
2023/06/19 14:56:47;;;;;;;9.77;6.13;;;;;;;;;;6155105;23;20088;-89
2023/06/19 14:59:14;;;;;;;14.88;6.95;;;;;;;;;;6156715;23;20009;-88
2023/06/19 15:01:40;;;;;;;12.93;6.20;;;;;;;;;;6181393;23;20001;-88
2023/06/19 15:04:18;;;;;;;10.00;5.93;;;;;;;;;;6156609;23;20009;-89
2023/06/19 15:06:47;;;;;;;9.27;5.38;;;;;;;;;;6156568;23;20013;-89
2023/06/19 15:09:13;;;;;;;7.90;5.47;;;;;;;;;;6130434;23;20093;-89
2023/06/19 15:11:48;;;;;;;8.25;5.70;;;;;;;;;;6130463;23;20013;-89
2023/06/19 15:14:14;;;;;;;9.40;5.63;;;;;;;;;;6132348;23;20553;-89
2023/06/19 15:16:40;;;;;;;7.63;5.75;;;;;;;;;;6130060;23;20029;-89
2023/06/19 15:19:16;;;;;;;10.70;6.90;;;;;;;;;;6157459;23;20506;-90
2023/06/19 15:21:42;;;;;;;11.07;6.85;;;;;;;;;;6183290;23;20001;-89